createdAt,value
2023-04-11T00:02:08.883Z,55.27
2023-04-11T00:07:11.061Z,55.47
2023-04-11T00:12:13.329Z,55.71
2023-04-11T00:17:16.972Z,55.76
2023-04-11T00:22:19.450Z,55.75
2023-04-11T00:27:22.047Z,56.17
2023-04-11T00:32:25.668Z,55.93
2023-04-11T00:37:27.885Z,56.22
2023-04-11T00:42:29.987Z,56.20
2023-04-11T00:47:34.249Z,56.19
2023-04-11T00:52:39.402Z,56.34
2023-04-11T00:57:42.290Z,56.57
2023-04-11T01:02:45.744Z,57.41
2023-04-11T01:07:52.534Z,57.43
2023-04-11T01:12:55.861Z,57.13
2023-04-11T01:17:59.980Z,57.10
2023-04-11T01:23:02.674Z,56.87
2023-04-11T01:28:06.451Z,56.80
2023-04-11T01:33:08.609Z,56.98
2023-04-11T01:38:11.575Z,56.91
2023-04-11T01:43:15.005Z,57.83
2023-04-11T01:48:16.944Z,57.60
2023-04-11T01:53:19.166Z,57.50
2023-04-11T01:58:22.635Z,57.50
2023-04-11T02:03:25.070Z,57.39
2023-04-11T02:08:27.492Z,57.73
2023-04-11T02:13:30.914Z,58.34
2023-04-11T02:18:32.974Z,57.83
2023-04-11T02:23:35.189Z,58.50
2023-04-11T02:28:38.303Z,58.24
2023-04-11T02:33:40.348Z,58.58
2023-04-11T02:38:42.387Z,58.15
2023-04-11T02:43:46.123Z,57.56
2023-04-11T02:48:48.212Z,58.04
2023-04-11T02:53:50.262Z,58.05
2023-04-11T02:58:53.987Z,58.74
2023-04-11T03:03:56.637Z,58.86
2023-04-11T03:08:58.746Z,59.04
2023-04-11T03:14:02.709Z,59.04
2023-04-11T03:19:04.686Z,59.04
2023-04-11T03:24:07.183Z,58.88
2023-04-11T03:29:10.740Z,58.81
2023-04-11T03:34:12.815Z,58.95
2023-04-11T03:39:15.157Z,59.56
2023-04-11T03:44:18.570Z,59.90
2023-04-11T03:49:20.758Z,61.28
2023-04-11T03:54:22.823Z,64.75
2023-04-11T03:59:26.335Z,71.66
2023-04-11T04:04:28.885Z,76.77
2023-04-11T04:09:31.085Z,84.65
2023-04-11T04:14:34.569Z,88.52
2023-04-11T04:19:36.593Z,90.99
2023-04-11T04:24:38.602Z,93.15
2023-04-11T04:29:45.328Z,95.41
2023-04-11T04:34:50.728Z,96.61
2023-04-11T04:39:53.662Z,97.48
2023-04-11T04:44:57.262Z,99.03
2023-04-11T04:49:59.957Z,99.23
2023-04-11T04:55:01.826Z,99.17
2023-04-11T05:00:06.851Z,99.47
2023-04-11T05:05:09.490Z,100.00
2023-04-11T05:10:11.678Z,100.00
2023-04-11T05:15:15.921Z,100.00
2023-04-11T05:20:17.921Z,100.00
2023-04-11T05:25:23.101Z,100.00
2023-04-11T05:30:26.642Z,100.00
2023-04-11T05:35:29.994Z,100.00
2023-04-11T05:40:31.924Z,100.00
2023-04-11T05:45:35.322Z,100.00
2023-04-11T05:50:37.429Z,100.00
2023-04-11T05:55:39.416Z,100.00
2023-04-11T06:00:42.942Z,100.00
2023-04-11T06:05:45.412Z,100.00
2023-04-11T06:10:47.143Z,100.00
2023-04-11T06:15:50.521Z,100.00
2023-04-11T06:20:52.246Z,100.00
2023-04-11T06:25:54.077Z,100.00
2023-04-11T06:30:57.564Z,100.00
2023-04-11T06:35:59.721Z,100.00
2023-04-11T06:41:02.398Z,100.00
2023-04-11T06:46:06.069Z,100.00
2023-04-11T06:51:07.989Z,100.00
2023-04-11T06:56:10.534Z,100.00
2023-04-11T07:01:13.868Z,100.00
2023-04-11T07:06:16.035Z,100.00
2023-04-11T07:11:19.145Z,100.00
2023-04-11T07:16:23.789Z,99.99
2023-04-11T07:21:25.778Z,100.00
2023-04-11T07:26:27.975Z,100.00
2023-04-11T07:31:31.692Z,100.00
2023-04-11T07:36:34.113Z,99.38
2023-04-11T07:41:36.905Z,98.96
2023-04-11T07:46:40.287Z,99.31
2023-04-11T07:51:42.324Z,97.77
2023-04-11T07:56:44.330Z,98.14
2023-04-11T08:01:58.754Z,97.10
2023-04-11T08:07:00.960Z,95.16
2023-04-11T08:12:02.981Z,93.01
2023-04-11T08:17:14.663Z,90.32
2023-04-11T08:22:24.452Z,84.26
2023-04-11T08:27:26.207Z,84.38
2023-04-11T08:32:29.654Z,85.77
2023-04-11T08:37:32.632Z,87.61
2023-04-11T08:42:35.362Z,87.90
2023-04-11T08:47:38.537Z,87.41
2023-04-11T08:52:42.479Z,86.05
2023-04-11T08:57:46.449Z,84.82
2023-04-11T09:02:57.588Z,83.23
2023-04-11T09:08:01.495Z,79.45
2023-04-11T09:13:19.379Z,77.69
2023-04-11T09:18:33.482Z,75.01
2023-04-11T09:23:36.358Z,73.56
2023-04-11T09:28:43.007Z,70.58
2023-04-11T09:33:54.847Z,71.92
2023-04-11T09:38:57.947Z,63.27
2023-04-11T09:44:00.886Z,52.89
2023-04-11T09:49:04.255Z,47.50
2023-04-11T09:54:07.004Z,43.94
2023-04-11T09:59:09.256Z,45.72
2023-04-11T10:04:12.692Z,43.55
2023-04-11T10:09:19.238Z,48.26
2023-04-11T10:14:43.672Z,52.68
2023-04-11T10:19:47.135Z,51.71
2023-04-11T10:25:16.313Z,57.61
2023-04-11T10:30:18.432Z,63.08
2023-04-11T10:35:24.939Z,63.49
2023-04-11T10:40:26.678Z,66.76
2023-04-11T10:45:29.589Z,70.31
2023-04-11T10:50:37.955Z,66.25
2023-04-11T10:55:51.165Z,53.88
2023-04-11T11:01:26.118Z,54.22
2023-04-11T11:06:46.611Z,54.48
2023-04-11T11:12:05.158Z,57.31
2023-04-11T11:17:07.360Z,58.44
2023-04-11T11:22:15.856Z,60.08
2023-04-11T11:27:19.845Z,59.54
2023-04-11T11:32:22.921Z,57.07
2023-04-11T11:37:26.379Z,59.58
2023-04-11T11:42:28.608Z,57.94
2023-04-11T11:47:41.280Z,56.40
2023-04-11T11:52:44.542Z,55.37
2023-04-11T11:57:47.848Z,56.08
2023-04-11T12:02:52.724Z,54.68
2023-04-11T12:07:57.340Z,58.15
2023-04-11T12:12:59.516Z,55.65
2023-04-11T12:18:01.471Z,54.86
2023-04-11T12:23:04.599Z,56.93
2023-04-11T12:28:06.522Z,55.67
2023-04-11T12:33:08.554Z,58.06
2023-04-11T12:38:15.034Z,56.09
2023-04-11T12:43:20.127Z,55.89
2023-04-11T12:48:22.133Z,53.01
2023-04-11T12:53:25.210Z,53.64
2023-04-11T12:58:27.601Z,58.81
2023-04-11T13:03:29.562Z,72.13
2023-04-11T13:08:33.147Z,81.73
2023-04-11T13:13:35.110Z,86.29
2023-04-11T13:18:37.456Z,89.34
2023-04-11T13:23:40.842Z,89.43
2023-04-11T13:28:42.621Z,90.03
2023-04-11T13:33:44.659Z,91.31
2023-04-11T13:38:50.602Z,92.32
2023-04-11T13:43:52.921Z,91.02
2023-04-11T13:48:57.249Z,91.78
2023-04-11T13:54:02.706Z,91.04
2023-04-11T13:59:04.650Z,85.30
2023-04-11T14:04:06.900Z,88.41
2023-04-11T14:09:10.474Z,85.73
2023-04-11T14:14:12.422Z,84.08
2023-04-11T14:19:14.143Z,81.36
2023-04-11T14:24:17.427Z,80.69
2023-04-11T14:29:21.003Z,80.28
2023-04-11T14:34:24.131Z,76.68
2023-04-11T14:39:27.678Z,75.55
2023-04-11T14:44:29.907Z,74.64
2023-04-11T14:49:32.137Z,75.63
2023-04-11T14:54:35.280Z,75.66
2023-04-11T14:59:37.008Z,74.03
2023-04-11T15:04:38.776Z,75.58
2023-04-11T15:09:42.267Z,75.63
2023-04-11T15:14:45.258Z,74.05
2023-04-11T15:19:50.303Z,70.44
2023-04-11T15:24:53.682Z,72.10
2023-04-11T15:30:04.425Z,71.65
2023-04-11T15:35:06.975Z,67.42
2023-04-11T15:40:11.316Z,67.71
2023-04-11T15:45:13.276Z,65.75
2023-04-11T15:50:15.603Z,69.61
2023-04-11T15:55:18.913Z,71.00
2023-04-11T16:00:21.489Z,75.67
2023-04-11T16:05:25.269Z,77.79
2023-04-11T16:10:28.806Z,77.28
2023-04-11T16:15:31.855Z,74.42
2023-04-11T16:20:33.875Z,70.31
2023-04-11T16:25:37.714Z,67.87
2023-04-11T16:30:40.512Z,64.29
2023-04-11T16:35:48.712Z,62.30
2023-04-11T16:40:52.144Z,62.57
2023-04-11T16:45:57.115Z,60.53
2023-04-11T16:51:00.934Z,60.42
2023-04-11T16:56:07.332Z,60.89
2023-04-11T17:01:12.515Z,61.60
2023-04-11T17:06:16.799Z,62.33
2023-04-11T17:11:25.527Z,62.92
2023-04-11T17:16:30.394Z,63.35
2023-04-11T17:21:35.221Z,64.42
2023-04-11T17:26:39.094Z,66.20
2023-04-11T17:31:41.174Z,65.63
2023-04-11T17:36:43.030Z,65.77
2023-04-11T17:41:46.772Z,65.46
2023-04-11T17:46:48.744Z,65.62
2023-04-11T17:51:58.881Z,64.60
2023-04-11T17:57:02.897Z,63.45
2023-04-11T18:02:05.429Z,64.54
2023-04-11T18:07:07.186Z,67.02
2023-04-11T18:12:10.886Z,68.52
2023-04-11T18:17:12.852Z,69.53
2023-04-11T18:22:14.743Z,69.24
2023-04-11T18:27:18.204Z,70.62
2023-04-11T18:32:23.113Z,70.37
2023-04-11T18:37:26.837Z,71.51
2023-04-11T18:42:30.316Z,71.76
2023-04-11T18:47:32.559Z,73.44
2023-04-11T18:52:35.059Z,73.51
2023-04-11T18:57:39.600Z,73.88
2023-04-11T19:02:42.295Z,75.11
2023-04-11T19:07:44.781Z,75.60
2023-04-11T19:12:48.922Z,76.68
2023-04-11T19:17:52.284Z,77.65
2023-04-11T19:22:55.067Z,78.67
2023-04-11T19:27:59.240Z,79.52
2023-04-11T19:33:01.936Z,79.36
2023-04-11T19:38:04.317Z,80.02
2023-04-11T19:43:08.651Z,80.83
2023-04-11T19:48:12.637Z,81.54
2023-04-11T19:53:15.541Z,82.32
2023-04-11T19:58:19.632Z,84.27
2023-04-11T20:03:22.937Z,84.56
2023-04-11T20:08:25.921Z,85.23
2023-04-11T20:13:30.273Z,86.93
2023-04-11T20:18:34.888Z,87.92
2023-04-11T20:23:37.621Z,88.73
2023-04-11T20:28:41.662Z,89.82
2023-04-11T20:33:44.240Z,91.38
2023-04-11T20:38:47.064Z,91.91
2023-04-11T20:43:53.701Z,92.41
2023-04-11T20:48:55.934Z,91.68
2023-04-11T20:53:58.461Z,92.70
2023-04-11T20:59:02.212Z,93.69
2023-04-11T21:04:07.869Z,93.48
2023-04-11T21:09:09.662Z,94.36
2023-04-11T21:14:13.059Z,95.73
2023-04-11T21:19:15.465Z,96.18
2023-04-11T21:24:17.557Z,96.14
2023-04-11T21:29:20.572Z,97.44
2023-04-11T21:34:22.370Z,97.45
2023-04-11T21:39:24.112Z,97.97
2023-04-11T21:44:27.494Z,97.54
2023-04-11T21:49:29.756Z,98.41
2023-04-11T21:54:33.627Z,97.75
2023-04-11T21:59:37.551Z,98.47
2023-04-11T22:04:51.137Z,97.37
2023-04-11T22:09:54.084Z,99.38
2023-04-11T22:14:57.401Z,98.84
2023-04-11T22:20:00.057Z,100.00
2023-04-11T22:25:02.203Z,100.00
2023-04-11T22:30:07.229Z,100.00
2023-04-11T22:35:09.716Z,99.50
2023-04-11T22:40:12.140Z,100.00
2023-04-11T22:45:15.825Z,99.31
2023-04-11T22:50:17.612Z,99.94
2023-04-11T22:55:19.511Z,99.65
2023-04-11T23:00:23.146Z,100.00
2023-04-11T23:05:24.941Z,100.00
2023-04-11T23:10:26.961Z,99.84
2023-04-11T23:15:30.635Z,100.00
2023-04-11T23:20:35.173Z,99.73
2023-04-11T23:25:38.717Z,100.00
2023-04-11T23:30:42.121Z,100.00
2023-04-11T23:35:44.196Z,100.00
2023-04-11T23:40:46.421Z,100.00
2023-04-11T23:45:50.173Z,100.00
2023-04-11T23:50:52.316Z,100.00
2023-04-11T23:55:54.628Z,100.00
